Terminal Aerodrome Forecast
Issued by NWS Shreveport, LA

Home | Current Version | Previous Version | Text Only | Print | Product List | Glossary On
Versions: 1 2 3 4 5 6 7 8 9 10 11 12 13 14 15 16 17 18 19 20 21 22 23 24
200
FTUS44 KSHV 260521
TAFLFK
TAF
KLFK 260521Z 2606/2706 06004KT P6SM BKN070
     FM260900 06003KT P6SM BKN040 OVC070
     FM261200 09005KT P6SM SCT050 BKN070
     FM261800 10006KT P6SM SCT050 BKN120 BKN250
     FM270000 10004KT P6SM FEW050 SCT150 BKN250=

USA.gov is the U.S. government's official web portal to all federal, state and local government web resources and services.